Etusivu
METAR-TAF:

METAR-TAF

Lentoasemat :

Teheran, Iran

Leveyspiiri: 35-41N, Pituuspiiri: 051-21E, korkeus merenpinnasta: 1204 m

Tämänhetkinen sää

Tämä raportti tehtiin 32 minuuttia sitten, kello 10.00 UTC
Tuuli 4 kn etelästä
Lämpötila 11°C
Kosteus 54%
Ilmanpaine 1020 hPa
Näkyvyys: 2200 m
usvaa

METAR: OIII 151000Z 18004KT 2200 HZ NSC 11/02 Q1019 A3011

Aika: 14:02 (10:32 UTC)

Sääennuste

Tämä raportti tehtiin 3 tuntia ja 32 minuuttia sitten, kello 07.00 UTC
Ennuste voimassa 15. päivästä klo 06 UTC - 16. päivään klo 12 UTC
Tuuli 6 kn etelästä
Näkyvyys: 2000 m
usvaa
Ajoittain
15. päivästä klo 07 UTC - 15. päivään klo 12 UTC
Näkyvyys: 1000 m
usvaa
Ajoittain
16. päivästä klo 02 UTC - 16. päivään klo 08 UTC
Näkyvyys: 1000 m
usvaa

TAF: OIII 150700Z 1506/1612 18006KT 2000 HZ NSC TEMPO 1507/1512 1000 HZ TEMPO 1602/1608 1000 HZ

Säähavainnot ja -ennusteet yli 4000 lentoasemalta (METAR- ja TAF-raportit).

Käytössä olevat sääasemat on merkitty karttaan keltaisilla ja punaisilla pisteillä.

Aseta hiiri pisteen päälle nähdäksesi sääaseman nimen.

Klikkaa sitten nähdäksesi säähavainnot ja -ennusteet.

Kartan vaihtaminen: klikkaa mustalla rastilla varustettuja vihreitä pisteitä, niin voit zoomata sisään; viivalla varustettua vihreää pistettä, niin voit zoomata ulos tai vihreitä nuolia, niin pääset viereisille kartoille.


METAR-TAF: